New Martinsville, West Virginia
Current Conditions -  °F | °C
As of 12:53 PM on Thursday 27 Nov 2014 (Local Time) from KPKB Reporting Station
Overcast Overcast  
Wind Chill: 27°   Ceiling: 1700
Heat Index: 34°   Visibility: 8mi
Dew Point: 27°   Wind: 9mph
Humidity: 75%   Direction: 290°WNW
Pressure: 30.18"   Gusts: NA
Location:  39.64°N, 80.86°W
Report Text: KPKB 271753Z 29008KT 8SM BKN017 OVC025 01/M03 A3018 RMK AO2 RAE1654 SLP226 P0000 60000 T00111028 10028 20000 50010
Loading
Personal Weather Stations






























Interactive Weather Map New forecast layout! Learn more

10-Day Weather Forecast

Advertisements
Track Severe Weather on mobile